Kensal, North Dakota
Current Conditions -  °F | °C
As of 4:15 AM on Tuesday 21 Oct 2014 (Local Time) from K46D Reporting Station
Clear Clear  
Wind Chill: 37°   Ceiling: Unl
Heat Index: 45°   Visibility: 10mi
Dew Point: 43°   Wind: 17mph
Humidity: 93%   Direction: 150°SSE
Pressure: 29.97"   Gusts: 24mph
Location:  47.3°N, 98.73°W
Report Text: K46D 210915Z AUTO 15015G21KT 10SM CLR 07/06 A2997 RMK AO2
Loading
Personal Weather Stations






























Interactive Weather Map
Tropical Storm Tracking
New forecast layout! Learn more

10-Day Weather Forecast

Advertisements
Track Severe Weather on mobile